Time;durP1;ratioP1;P1;durP2;ratioP2;P2;SDS_P1;SDS_P2;PMS_P1;PMS_P2;Temp;Humidity;BMP_temperature;BMP_pressure;BME280_temperature;BME280_humidity;BME280_pressure;Samples;Min_cycle;Max_cycle;Signal;HPM_P1;HPM_P2
2022/09/16 00:01:16;;;;;;;5.82;0.70;;;11.90;99.90;;;;;;4965702;28;20479;-81
2022/09/16 00:03:42;;;;;;;4.75;0.65;;;11.90;99.90;;;;;;4986214;28;20054;-81
2022/09/16 00:06:26;;;;;;;6.88;0.57;;;12.00;99.90;;;;;;4983570;28;20065;-80
2022/09/16 00:08:54;;;;;;;3.90;0.70;;;12.00;99.90;;;;;;4979282;28;20050;-80
2022/09/16 00:11:20;;;;;;;6.20;0.50;;;12.00;99.90;;;;;;4982100;28;20038;-80
2022/09/16 00:13:46;;;;;;;3.35;0.52;;;12.00;99.90;;;;;;4982818;28;20032;-81
2022/09/16 00:16:17;;;;;;;4.60;0.45;;;12.00;99.90;;;;;;4980575;28;20043;-81
2022/09/16 00:18:42;;;;;;;7.82;0.60;;;11.90;99.90;;;;;;4978971;28;20098;-81
2022/09/16 00:21:09;;;;;;;6.65;1.05;;;12.00;99.90;;;;;;4981720;28;20082;-81
2022/09/16 00:23:35;;;;;;;4.65;0.57;;;12.00;99.90;;;;;;4983506;28;20042;-81
2022/09/16 00:26:01;;;;;;;7.55;0.60;;;12.00;99.90;;;;;;4994124;28;20082;-80
2022/09/16 00:28:26;;;;;;;6.20;0.75;;;12.00;99.90;;;;;;4968191;28;20030;-81
2022/09/16 00:30:52;;;;;;;6.20;0.60;;;12.00;99.90;;;;;;5006339;28;20047;-80
2022/09/16 00:33:18;;;;;;;5.00;0.50;;;11.90;99.90;;;;;;4998088;28;20030;-80
2022/09/16 00:35:45;;;;;;;5.40;0.70;;;12.10;99.90;;;;;;4978614;28;20035;-81
2022/09/16 00:38:11;;;;;;;2.53;0.80;;;12.00;99.90;;;;;;4968013;28;20038;-80
2022/09/16 00:40:48;;;;;;;5.03;0.68;;;12.00;99.90;;;;;;4978394;28;20043;-80
2022/09/16 00:43:16;;;;;;;5.20;1.85;;;12.10;99.90;;;;;;4978768;28;20046;-82
2022/09/16 00:45:48;;;;;;;8.60;0.70;;;12.10;99.90;;;;;;4980975;28;20062;-80
2022/09/16 00:48:19;;;;;;;8.35;0.75;;;12.00;99.90;;;;;;5007048;28;20047;-80
2022/09/16 00:50:50;;;;;;;2.95;0.35;;;12.00;99.90;;;;;;4964383;28;20043;-80
2022/09/16 00:53:23;;;;;;;5.72;0.38;;;12.00;99.90;;;;;;4981750;28;20081;-80
2022/09/16 00:55:51;;;;;;;4.28;0.70;;;11.90;99.90;;;;;;4981850;28;20074;-81
2022/09/16 00:58:41;;;;;;;4.95;0.47;;;12.00;99.90;;;;;;4980657;28;20035;-80
2022/09/16 01:01:07;;;;;;;5.43;0.47;;;11.90;99.90;;;;;;4982054;28;20070;-80
2022/09/16 01:03:43;;;;;;;5.10;0.40;;;11.90;99.90;;;;;;4974725;28;20526;-81
2022/09/16 01:06:10;;;;;;;3.90;0.70;;;12.00;99.90;;;;;;4978177;28;20043;-80
2022/09/16 01:08:36;;;;;;;6.90;0.95;;;12.00;99.90;;;;;;4980178;28;20046;-80
2022/09/16 01:11:01;;;;;;;3.08;0.47;;;11.90;99.90;;;;;;4980294;28;20463;-80
2022/09/16 01:13:27;;;;;;;8.98;1.35;;;11.90;99.90;;;;;;4975323;28;20059;-80
2022/09/16 01:16:04;;;;;;;5.43;0.50;;;11.90;99.90;;;;;;4979429;28;20046;-81
2022/09/16 01:18:57;;;;;;;5.72;0.75;;;11.90;99.90;;;;;;4966907;28;20045;-80
2022/09/16 01:21:44;;;;;;;5.82;0.85;;;11.90;99.90;;;;;;4996169;28;20145;-80
2022/09/16 01:24:40;;;;;;;3.30;0.30;;;11.90;99.90;;;;;;4978345;28;20047;-81
2022/09/16 01:27:49;;;;;;;3.22;0.30;;;11.90;99.90;;;;;;4971942;28;20415;-80
2022/09/16 01:30:40;;;;;;;4.15;0.60;;;11.90;99.90;;;;;;4982028;28;20530;-81
2022/09/16 01:33:30;;;;;;;2.67;0.38;;;11.90;99.90;;;;;;4989669;28;20050;-81
2022/09/16 01:36:16;;;;;;;4.15;0.47;;;11.90;99.90;;;;;;4981026;28;20038;-80
2022/09/16 01:38:41;;;;;;;;;;;11.90;99.90;;;;;;4980776;28;20885;-80
2022/09/16 01:41:38;;;;;;;5.50;0.40;;;11.90;99.90;;;;;;5012142;28;19918;-80
2022/09/16 01:44:12;;;;;;;4.88;0.40;;;11.90;99.90;;;;;;4988542;28;20061;-80
2022/09/16 01:47:03;;;;;;;4.53;0.45;;;11.90;99.90;;;;;;4979901;28;20741;-81
2022/09/16 01:50:06;;;;;;;5.25;0.50;;;11.90;99.90;;;;;;4977984;28;20046;-80
2022/09/16 01:52:56;;;;;;;6.05;0.52;;;11.80;99.90;;;;;;5005980;28;20049;-80
2022/09/16 01:55:48;;;;;;;3.15;0.45;;;11.80;99.90;;;;;;4981220;28;20047;-80
2022/09/16 01:58:38;;;;;;;4.88;0.40;;;11.80;99.90;;;;;;4954550;28;20047;-81
2022/09/16 02:01:28;;;;;;;3.35;0.32;;;11.80;99.90;;;;;;4977342;28;20054;-80
2022/09/16 02:04:00;;;;;;;5.55;0.85;;;11.80;99.90;;;;;;4975848;28;20035;-80
2022/09/16 02:06:27;;;;;;;8.48;0.57;;;11.80;99.90;;;;;;4976224;28;20035;-81
2022/09/16 02:08:57;;;;;;;2.30;0.30;;;11.90;99.90;;;;;;4992585;28;20053;-80
2022/09/16 02:11:23;;;;;;;1.90;0.30;;;11.90;99.90;;;;;;4960002;28;20130;-81
2022/09/16 02:14:05;;;;;;;6.28;0.30;;;11.90;99.90;;;;;;4979339;28;20039;-82
2022/09/16 02:16:39;;;;;;;2.20;0.30;;;11.90;99.90;;;;;;5000505;28;20035;-81
2022/09/16 02:19:10;;;;;;;4.10;0.45;;;11.80;99.90;;;;;;4995992;28;20042;-80
2022/09/16 02:21:39;;;;;;;5.68;0.32;;;11.80;99.90;;;;;;4979011;28;20054;-80
2022/09/16 02:24:11;;;;;;;6.00;0.85;;;11.80;99.90;;;;;;4987951;28;20042;-80
2022/09/16 02:26:43;;;;;;;2.85;0.30;;;11.80;99.90;;;;;;5005444;28;20057;-81
2022/09/16 02:29:15;;;;;;;4.95;0.50;;;11.70;99.90;;;;;;4979084;28;20979;-81
2022/09/16 02:31:43;;;;;;;2.95;0.30;;;11.70;99.90;;;;;;4977069;28;20056;-80
2022/09/16 02:34:14;;;;;;;5.63;0.70;;;11.70;99.90;;;;;;4976429;28;20050;-80
2022/09/16 02:36:44;;;;;;;1.90;0.50;;;11.60;99.90;;;;;;4982150;28;20447;-81
2022/09/16 02:39:15;;;;;;;6.20;0.50;;;11.50;99.90;;;;;;4974424;28;20133;-81
2022/09/16 02:41:41;;;;;;;3.13;0.82;;;11.50;99.90;;;;;;5004000;28;21610;-81
2022/09/16 02:44:08;;;;;;;3.88;0.40;;;11.40;99.90;;;;;;4972956;28;20047;-80
2022/09/16 02:46:50;;;;;;;5.85;0.65;;;11.40;99.90;;;;;;4972917;28;20114;-80
2022/09/16 02:49:45;;;;;;;3.03;0.32;;;11.40;99.90;;;;;;4974346;28;20671;-81
2022/09/16 02:52:33;;;;;;;1.85;0.20;;;11.40;99.90;;;;;;4958178;28;20106;-81
2022/09/16 02:55:28;;;;;;;6.10;0.50;;;11.40;99.90;;;;;;4979496;28;20046;-82
2022/09/16 02:57:54;;;;;;;7.47;0.95;;;11.40;99.90;;;;;;4977246;28;20046;-80
2022/09/16 03:00:19;;;;;;;2.00;0.30;;;11.50;99.90;;;;;;4976252;28;20050;-81
2022/09/16 03:02:45;;;;;;;5.35;1.05;;;11.50;99.90;;;;;;4992143;28;20118;-81
2022/09/16 03:05:11;;;;;;;4.25;0.40;;;11.50;99.90;;;;;;4978659;28;20044;-81
2022/09/16 03:07:40;;;;;;;2.50;0.50;;;11.50;99.90;;;;;;4976162;28;20031;-80
2022/09/16 03:10:09;;;;;;;5.80;0.55;;;11.60;99.90;;;;;;4974862;28;20055;-80
2022/09/16 03:12:48;;;;;;;4.95;0.40;;;11.60;99.90;;;;;;4977640;28;20109;-80
2022/09/16 03:15:35;;;;;;;4.03;0.63;;;11.60;99.90;;;;;;4983666;28;20043;-80
2022/09/16 03:18:20;;;;;;;7.57;0.52;;;11.70;99.90;;;;;;4974228;28;20062;-80
2022/09/16 03:21:04;;;;;;;5.60;0.77;;;11.60;99.90;;;;;;4972481;28;20085;-80
2022/09/16 03:23:58;;;;;;;5.78;0.68;;;11.60;99.90;;;;;;4975093;28;20070;-79
2022/09/16 03:26:48;;;;;;;7.68;0.55;;;11.60;99.90;;;;;;4989770;28;20050;-80
2022/09/16 03:29:39;;;;;;;3.92;0.30;;;11.60;99.90;;;;;;4974977;28;20055;-80
2022/09/16 03:32:19;;;;;;;2.17;0.30;;;11.60;99.90;;;;;;4970794;28;20050;-82
2022/09/16 03:34:58;;;;;;;5.18;0.50;;;11.50;99.90;;;;;;4982375;28;20042;-80
2022/09/16 03:37:29;;;;;;;4.63;0.95;;;11.50;99.90;;;;;;4999483;28;20042;-80
2022/09/16 03:39:58;;;;;;;7.68;0.60;;;11.50;99.90;;;;;;4980874;28;20066;-80
2022/09/16 03:42:24;;;;;;;3.70;0.50;;;11.50;99.90;;;;;;5012134;28;20069;-80
2022/09/16 03:44:49;;;;;;;5.47;0.50;;;11.50;99.90;;;;;;4984628;28;20038;-81
2022/09/16 03:47:16;;;;;;;9.88;0.68;;;11.50;99.90;;;;;;4979432;28;20030;-80
2022/09/16 03:49:42;;;;;;;5.95;0.75;;;11.50;99.90;;;;;;4974842;28;20085;-80
2022/09/16 03:52:08;;;;;;;4.05;0.60;;;11.50;99.90;;;;;;4990054;28;20039;-79
2022/09/16 03:54:35;;;;;;;4.65;0.40;;;11.50;99.90;;;;;;4973800;28;20043;-80
2022/09/16 03:57:00;;;;;;;5.13;0.55;;;11.50;99.90;;;;;;4969951;28;20058;-79
2022/09/16 03:59:27;;;;;;;3.33;0.65;;;11.50;99.90;;;;;;4973836;28;20057;-80
2022/09/16 04:01:52;;;;;;;5.63;0.55;;;11.50;99.90;;;;;;4979030;28;20061;-79
2022/09/16 04:04:18;;;;;;;11.48;0.70;;;11.50;99.90;;;;;;4972770;28;20496;-80
2022/09/16 04:06:44;;;;;;;4.22;0.47;;;11.40;99.90;;;;;;4974984;28;20394;-80
2022/09/16 04:09:11;;;;;;;5.32;0.52;;;11.40;99.90;;;;;;4978928;28;20055;-80
2022/09/16 04:11:37;;;;;;;5.05;1.17;;;11.40;99.90;;;;;;4994158;28;20053;-80
2022/09/16 04:14:03;;;;;;;8.18;0.50;;;11.40;99.90;;;;;;4983697;28;20034;-81
2022/09/16 04:16:30;;;;;;;4.28;0.30;;;11.30;99.90;;;;;;4972165;28;20037;-80
2022/09/16 04:19:36;;;;;;;6.28;0.45;;;11.30;99.90;;;;;;4976063;28;20078;-81
2022/09/16 04:22:15;;;;;;;7.35;0.57;;;11.30;99.90;;;;;;4977745;28;20055;-82
2022/09/16 04:24:44;;;;;;;4.72;0.52;;;11.20;99.90;;;;;;4954565;28;20082;-82
2022/09/16 04:27:10;;;;;;;2.88;0.43;;;11.20;99.90;;;;;;4979078;28;20042;-83
2022/09/16 04:29:38;;;;;;;3.38;0.30;;;12.10;99.90;;;;;;4978752;28;20050;-82
2022/09/16 04:32:04;;;;;;;3.80;0.52;;;11.20;99.90;;;;;;4968859;28;20116;-82
2022/09/16 04:34:42;;;;;;;7.72;1.48;;;11.20;99.90;;;;;;4946017;28;20043;-83
2022/09/16 04:37:08;;;;;;;3.83;0.32;;;11.20;99.90;;;;;;4969077;28;20097;-83
2022/09/16 04:39:34;;;;;;;9.25;0.75;;;11.20;99.90;;;;;;4974942;28;20046;-83
2022/09/16 04:41:59;;;;;;;6.15;0.52;;;11.50;99.90;;;;;;4975291;28;20431;-83
2022/09/16 04:44:26;;;;;;;5.43;0.70;;;11.70;99.90;;;;;;4975167;28;20062;-81
2022/09/16 04:46:52;;;;;;;2.45;0.40;;;11.10;99.90;;;;;;4975724;28;20129;-82
2022/09/16 04:49:17;;;;;;;4.57;0.50;;;11.10;99.90;;;;;;4936153;28;20054;-83
2022/09/16 04:51:43;;;;;;;4.13;0.70;;;11.10;99.90;;;;;;4967737;28;20641;-84
2022/09/16 04:54:10;;;;;;;5.05;0.85;;;11.40;99.90;;;;;;4967421;28;20039;-84
2022/09/16 04:56:36;;;;;;;4.18;0.43;;;11.50;99.90;;;;;;4973894;28;20141;-81
2022/09/16 04:59:24;;;;;;;2.97;0.40;;;11.00;99.90;;;;;;4974579;28;20062;-81
2022/09/16 05:01:50;;;;;;;5.07;2.00;;;11.00;99.90;;;;;;4979685;28;20051;-80
2022/09/16 05:04:31;;;;;;;4.07;0.65;;;11.00;99.90;;;;;;4977763;28;20070;-83
2022/09/16 05:06:58;;;;;;;3.33;0.85;;;10.90;99.90;;;;;;4979148;28;20038;-82
2022/09/16 05:09:39;;;;;;;7.30;0.40;;;10.90;99.90;;;;;;4956357;28;20530;-83
2022/09/16 05:12:43;;;;;;;6.25;0.65;;;10.80;99.90;;;;;;4971465;28;20098;-82
2022/09/16 05:15:18;;;;;;;6.85;0.43;;;10.80;99.90;;;;;;4972016;28;20047;-81
2022/09/16 05:17:50;;;;;;;5.97;0.50;;;10.80;99.90;;;;;;4970467;28;20050;-84
2022/09/16 05:27:38;;;;;;;5.47;0.50;;;10.70;99.90;;;;;;4966358;28;20049;-83
2022/09/16 05:30:54;;;;;;;3.17;0.50;;;10.70;99.90;;;;;;4965637;28;20047;-83
2022/09/16 05:34:15;;;;;;;4.13;0.80;;;10.70;99.90;;;;;;4920944;28;20163;-84
2022/09/16 05:44:28;;;;;;;7.07;1.00;;;10.80;99.90;;;;;;4951114;28;20030;-82
2022/09/16 05:50:57;;;;;;;3.53;0.57;;;11.10;99.90;;;;;;4888048;29;20038;-80
2022/09/16 05:53:24;;;;;;;4.22;0.50;;;11.30;99.90;;;;;;4928683;28;20135;-82
2022/09/16 06:04:03;;;;;;;6.43;0.70;;;11.30;99.90;;;;;;4944871;29;20070;-87
2022/09/16 06:11:15;;;;;;;8.38;1.13;;;11.40;99.90;;;;;;4960817;28;20106;-85
2022/09/16 06:18:43;;;;;;;7.43;1.10;;;11.50;99.90;;;;;;4953353;28;20542;-85
2022/09/16 07:13:54;;;;;;;8.18;1.00;;;15.40;99.90;;;;;;4973790;28;20575;-84
2022/09/16 07:16:49;;;;;;;7.47;0.95;;;15.30;99.90;;;;;;4960711;28;20047;-83
2022/09/16 07:20:00;;;;;;;8.65;1.15;;;15.20;99.90;;;;;;4960191;28;20130;-83
2022/09/16 07:23:26;;;;;;;16.20;1.25;;;15.20;99.90;;;;;;4962430;28;20137;-84
2022/09/16 07:38:24;;;;;;;5.45;0.70;;;15.00;99.90;;;;;;4865215;29;20192;-84
2022/09/16 07:41:52;;;;;;;14.27;1.60;;;14.90;99.90;;;;;;4850091;29;20111;-83
2022/09/16 07:52:16;;;;;;;7.63;0.90;;;15.00;99.90;;;;;;4885528;29;20114;-83
2022/09/16 07:59:49;;;;;;;9.48;1.33;;;15.00;99.90;;;;;;4773269;29;20093;-84
2022/09/16 08:03:14;;;;;;;13.10;1.77;;;15.10;99.90;;;;;;4779634;29;20062;-83
2022/09/16 08:06:53;;;;;;;11.93;1.05;;;15.20;99.90;;;;;;4839579;29;20121;-84
2022/09/16 08:21:44;;;;;;;8.75;1.08;;;16.10;99.90;;;;;;4833885;29;20052;-85
2022/09/16 08:52:56;;;;;;;8.60;1.15;;;18.10;99.90;;;;;;4725809;30;20051;-83
2022/09/16 09:14:30;;;;;;;7.70;1.30;;;18.90;99.90;;;;;;4853878;29;20105;-84
2022/09/16 09:25:42;;;;;;;6.43;1.15;;;19.40;99.90;;;;;;4881055;29;20583;-83
2022/09/16 09:29:33;;;;;;;8.00;1.58;;;19.40;99.90;;;;;;4900530;29;20063;-84
2022/09/16 09:48:13;;;;;;;5.25;1.02;;;19.40;99.80;;;;;;4842009;29;20523;-84
2022/09/16 09:59:40;;;;;;;7.57;1.13;;;19.60;99.40;;;;;;4796777;29;20171;-83
2022/09/16 10:13:56;;;;;;;4.88;1.05;;;19.10;98.80;;;;;;4809981;29;20042;-82
2022/09/16 10:16:29;;;;;;;8.95;1.38;;;18.70;98.50;;;;;;4813663;29;20065;-83
2022/09/16 10:20:09;;;;;;;8.93;1.63;;;18.40;99.90;;;;;;4803177;29;20074;-83
2022/09/16 10:23:47;;;;;;;8.05;1.92;;;18.00;99.90;;;;;;4830492;29;20053;-83
2022/09/16 10:38:29;;;;;;;7.35;1.40;;;17.70;99.90;;;;;;4900977;29;20043;-83
2022/09/16 10:41:38;;;;;;;7.97;1.20;;;18.10;99.90;;;;;;4986858;28;20051;-83
2022/09/16 10:45:11;;;;;;;9.30;1.75;;;18.40;99.90;;;;;;4840368;29;20060;-84
2022/09/16 10:51:25;;;;;;;7.40;1.60;;;19.00;99.90;;;;;;4840626;29;20070;-84
2022/09/16 10:54:28;;;;;;;9.23;2.05;;;19.20;99.90;;;;;;4852738;29;20044;-84
2022/09/16 11:02:00;;;;;;;7.72;1.15;;;19.70;99.90;;;;;;4811073;29;20057;-82
2022/09/16 11:09:15;;;;;;;9.88;1.10;;;19.90;98.40;;;;;;4807666;29;20084;-83
2022/09/16 11:12:36;;;;;;;9.35;1.27;;;20.00;99.10;;;;;;4830610;29;20054;-81
2022/09/16 11:23:26;;;;;;;7.35;0.93;;;19.90;97.30;;;;;;4880043;29;20131;-84
2022/09/16 11:41:16;;;;;;;6.57;1.10;;;20.30;97.70;;;;;;4900865;28;20050;-85
2022/09/16 12:39:40;;;;;;;6.97;1.05;;;17.50;99.90;;;;;;4851810;29;20573;-83
2022/09/16 12:43:28;;;;;;;9.82;1.70;;;18.10;99.90;;;;;;4892996;29;20074;-83
2022/09/16 12:47:45;;;;;;;9.60;1.48;;;18.40;99.90;;;;;;4890760;29;20044;-83
2022/09/16 12:54:41;;;;;;;;;;;18.30;99.90;;;;;;5078852;27;20448;-84
2022/09/16 12:57:34;;;;;;;10.55;1.70;;;17.90;99.90;;;;;;5074164;28;19920;-84
2022/09/16 13:00:18;;;;;;;11.88;1.50;;;17.90;99.90;;;;;;5073902;28;20112;-85
2022/09/16 13:02:51;;;;;;;11.00;1.45;;;17.80;99.90;;;;;;5073544;28;20433;-84
2022/09/16 13:05:27;;;;;;;6.55;1.77;;;18.20;99.90;;;;;;5073774;28;20210;-84
2022/09/16 13:07:59;;;;;;;11.18;2.10;;;17.90;99.90;;;;;;5075376;28;20608;-82
2022/09/16 13:10:37;;;;;;;8.55;1.25;;;17.80;99.90;;;;;;5075691;28;20600;-83
2022/09/16 13:13:04;;;;;;;8.95;1.83;;;17.90;99.90;;;;;;5073257;28;20111;-83
2022/09/16 13:15:33;;;;;;;11.95;1.92;;;18.00;99.90;;;;;;5077737;28;20036;-83
2022/09/16 13:18:17;;;;;;;10.70;2.00;;;18.10;99.90;;;;;;5072939;28;20123;-86
2022/09/16 13:21:00;;;;;;;6.53;1.60;;;18.10;99.90;;;;;;5078479;28;20556;-86
2022/09/16 13:23:32;;;;;;;11.70;1.88;;;18.00;99.90;;;;;;5077484;28;20549;-86
2022/09/16 13:26:05;;;;;;;8.88;2.13;;;18.30;99.90;;;;;;5074972;28;20033;-86
2022/09/16 13:28:31;;;;;;;10.63;1.90;;;18.10;99.90;;;;;;5055545;28;20036;-86
2022/09/16 13:31:11;;;;;;;10.55;1.88;;;18.30;99.90;;;;;;5063010;28;20044;-87
2022/09/16 13:33:57;;;;;;;16.17;3.15;;;18.40;99.90;;;;;;5063143;28;20048;-86
2022/09/16 13:36:22;;;;;;;;;;;18.50;99.90;;;;;;5080613;28;20101;-86
2022/09/16 13:38:49;;;;;;;;;;;18.70;99.90;;;;;;5077228;28;20015;-86
2022/09/16 13:41:47;;;;;;;10.00;2.08;;;18.60;99.90;;;;;;5079459;28;20447;-87
2022/09/16 13:44:32;;;;;;;11.85;1.75;;;18.50;99.90;;;;;;5066103;28;20055;-86
2022/09/16 13:47:09;;;;;;;13.00;2.38;;;18.50;99.90;;;;;;5077118;28;20052;-86
2022/09/16 13:49:47;;;;;;;12.02;2.13;;;18.50;99.90;;;;;;5060093;28;20545;-87
2022/09/16 13:52:29;;;;;;;13.23;2.30;;;18.50;99.90;;;;;;5059125;28;20491;-86
2022/09/16 13:55:00;;;;;;;11.45;2.33;;;18.50;99.90;;;;;;5066361;28;20040;-86
2022/09/16 13:57:47;;;;;;;12.05;2.17;;;18.40;99.90;;;;;;5075093;28;20040;-86
2022/09/16 14:00:20;;;;;;;11.50;2.67;;;18.30;99.90;;;;;;5078949;28;20044;-86
2022/09/16 14:02:50;;;;;;;10.05;1.88;;;18.10;99.90;;;;;;5074182;28;20039;-87
2022/09/16 14:05:37;;;;;;;8.90;1.52;;;17.80;99.90;;;;;;5064755;28;20044;-87
2022/09/16 14:08:25;;;;;;;11.55;1.98;;;17.50;99.90;;;;;;5062562;28;20041;-87
2022/09/16 14:11:15;;;;;;;9.63;1.80;;;17.00;99.90;;;;;;5047098;28;20071;-87
2022/09/16 14:13:45;;;;;;;8.02;1.75;;;16.70;99.90;;;;;;5062472;28;20566;-87
2022/09/16 14:16:18;;;;;;;9.40;1.52;;;16.30;99.90;;;;;;5065339;28;20036;-87
2022/09/16 14:19:11;;;;;;;13.85;2.47;;;16.10;99.90;;;;;;5061169;28;20061;-87
2022/09/16 14:21:37;;;;;;;22.02;2.15;;;16.00;99.90;;;;;;5068480;28;20052;-87
2022/09/16 14:24:17;;;;;;;11.93;1.90;;;15.90;99.90;;;;;;5068043;28;20099;-87
2022/09/16 14:26:54;;;;;;;9.15;2.10;;;16.10;99.90;;;;;;5066599;28;20506;-87
2022/09/16 14:29:21;;;;;;;10.93;1.63;;;15.60;99.90;;;;;;5047749;28;20040;-87
2022/09/16 14:31:48;;;;;;;11.07;1.65;;;15.50;99.90;;;;;;5067472;28;20097;-87
2022/09/16 14:34:22;;;;;;;11.82;1.95;;;15.50;99.90;;;;;;5066955;28;20045;-87
2022/09/16 14:36:48;;;;;;;10.60;1.90;;;15.50;99.90;;;;;;5079597;28;20040;-87
2022/09/16 14:39:18;;;;;;;11.38;1.52;;;15.40;99.90;;;;;;5070036;28;20039;-87
2022/09/16 14:41:48;;;;;;;10.00;2.15;;;15.60;99.90;;;;;;5062436;28;20063;-86
2022/09/16 14:44:43;;;;;;;11.15;1.83;;;15.40;99.90;;;;;;5061061;28;20048;-85
2022/09/16 14:47:24;;;;;;;11.07;2.15;;;15.50;99.90;;;;;;5049045;28;20044;-87
2022/09/16 14:49:54;;;;;;;10.57;2.45;;;15.50;99.90;;;;;;5051721;28;20060;-87
2022/09/16 14:52:24;;;;;;;11.02;1.67;;;15.80;99.90;;;;;;5061461;28;20067;-87
2022/09/16 14:54:50;;;;;;;9.73;1.95;;;15.50;99.90;;;;;;5068950;28;20575;-87
2022/09/16 14:57:21;;;;;;;12.38;1.67;;;15.50;99.90;;;;;;5064081;28;20045;-87
2022/09/16 14:59:48;;;;;;;10.15;2.55;;;15.50;99.90;;;;;;5065498;28;20056;-87
2022/09/16 15:02:29;;;;;;;12.75;2.13;;;15.60;99.90;;;;;;5067171;28;20581;-86
2022/09/16 15:05:24;;;;;;;13.75;1.88;;;15.60;99.90;;;;;;5064981;28;20045;-87
2022/09/16 15:08:06;;;;;;;11.80;1.98;;;15.60;99.90;;;;;;5069688;28;20052;-87
2022/09/16 15:10:32;;;;;;;11.45;1.60;;;16.00;99.90;;;;;;5066078;28;20032;-87
2022/09/16 15:13:02;;;;;;;10.35;1.27;;;15.60;99.90;;;;;;5065108;28;20051;-87
2022/09/16 15:15:31;;;;;;;14.40;2.00;;;15.50;99.90;;;;;;5045918;28;20127;-87
2022/09/16 15:17:57;;;;;;;9.63;1.85;;;15.70;99.90;;;;;;5049349;28;20048;-86
2022/09/16 15:20:29;;;;;;;12.35;1.98;;;15.30;99.90;;;;;;5070491;28;20040;-87
2022/09/16 15:22:55;;;;;;;8.98;2.15;;;15.20;99.90;;;;;;5069371;28;20055;-86
2022/09/16 15:25:28;;;;;;;9.60;1.70;;;15.20;99.90;;;;;;5067090;28;20029;-88
2022/09/16 15:53:45;;;;;;;8.75;1.17;;;14.50;99.90;;;;;;5061061;28;20048;-84
2022/09/16 15:56:34;;;;;;;5.47;0.70;;;14.40;99.90;;;;;;5055810;28;20135;-85
2022/09/16 15:59:22;;;;;;;8.07;0.93;;;14.20;99.90;;;;;;5041077;28;20047;-84
2022/09/16 16:01:52;;;;;;;6.18;1.17;;;14.10;99.90;;;;;;5045352;28;20551;-84
2022/09/16 16:04:39;;;;;;;3.65;0.50;;;14.10;99.90;;;;;;5060315;28;20044;-85
2022/09/16 16:07:51;;;;;;;4.13;0.70;;;13.90;99.90;;;;;;5063579;28;20036;-85
2022/09/16 16:10:27;;;;;;;5.80;0.68;;;13.90;99.90;;;;;;5057594;28;20047;-84
2022/09/16 16:12:55;;;;;;;3.58;0.55;;;13.80;99.90;;;;;;5057796;28;20094;-84
2022/09/16 16:15:59;;;;;;;3.28;0.40;;;13.80;99.90;;;;;;5042590;28;20033;-87
2022/09/16 16:18:51;;;;;;;5.35;0.60;;;13.80;99.90;;;;;;5060576;28;20045;-88
2022/09/16 16:21:44;;;;;;;6.53;1.13;;;13.70;99.90;;;;;;5008291;28;20682;-87
2022/09/16 16:25:07;;;;;;;3.50;0.40;;;13.70;99.90;;;;;;5049637;28;20068;-87
2022/09/16 16:28:40;;;;;;;6.13;0.75;;;13.80;99.90;;;;;;5075243;28;20453;-86
2022/09/16 16:46:32;;;;;;;7.30;0.90;;;13.90;99.90;;;;;;4926924;29;20071;-84
2022/09/16 16:48:58;;;;;;;9.70;1.05;;;13.90;99.90;;;;;;4878707;28;20052;-84
2022/09/16 16:51:23;;;;;;;7.57;1.05;;;13.80;99.90;;;;;;4979736;28;20089;-82
2022/09/16 16:54:03;;;;;;;10.63;1.77;;;13.80;99.90;;;;;;5062385;28;20044;-85
2022/09/16 16:56:29;;;;;;;5.40;1.23;;;13.80;99.90;;;;;;5046426;28;20040;-84
2022/09/16 16:58:55;;;;;;;7.70;1.48;;;13.80;99.90;;;;;;5064577;28;20043;-86
2022/09/16 17:05:01;;;;;;;7.45;1.08;;;13.80;99.90;;;;;;5067830;28;20040;-86
2022/09/16 17:07:28;;;;;;;9.07;1.25;;;13.70;99.90;;;;;;5070713;28;20407;-86
2022/09/16 17:09:58;;;;;;;8.57;1.40;;;13.70;99.90;;;;;;5051828;28;20537;-85
2022/09/16 17:12:26;;;;;;;8.73;1.25;;;13.70;99.90;;;;;;5051844;28;20071;-86
2022/09/16 17:14:52;;;;;;;8.77;1.30;;;13.80;99.90;;;;;;5067411;28;20045;-86
2022/09/16 17:17:17;;;;;;;8.75;1.23;;;13.50;99.90;;;;;;5044270;28;20178;-85
2022/09/16 17:19:43;;;;;;;10.70;1.20;;;13.60;99.90;;;;;;5058095;28;20032;-85
2022/09/16 17:22:11;;;;;;;12.05;1.30;;;13.50;99.90;;;;;;5059457;28;20051;-85
2022/09/16 17:24:37;;;;;;;9.60;1.55;;;13.60;99.90;;;;;;5058017;28;20176;-85
2022/09/16 17:34:21;;;;;;;5.65;0.90;;;13.40;99.90;;;;;;5063652;28;20596;-86
2022/09/16 17:37:07;;;;;;;8.10;1.00;;;13.40;99.90;;;;;;5062784;28;20121;-86
2022/09/16 17:40:51;;;;;;;6.38;0.75;;;13.30;99.90;;;;;;5084684;28;20100;-86
2022/09/16 17:54:27;;;;;;;5.07;0.82;;;13.20;99.90;;;;;;5088085;28;20104;-84
2022/09/16 18:11:57;;;;;;;7.55;1.20;;;13.10;99.90;;;;;;5061029;28;20103;-84
2022/09/16 18:14:23;;;;;;;10.43;0.85;;;13.10;99.90;;;;;;5060077;28;20044;-83
2022/09/16 18:16:48;;;;;;;9.68;1.38;;;13.10;99.90;;;;;;5059987;28;20044;-83
2022/09/16 18:23:09;;;;;;;8.25;1.08;;;13.10;99.90;;;;;;5065541;28;20459;-86
2022/09/16 18:29:29;;;;;;;7.95;1.23;;;13.10;99.90;;;;;;5061288;28;20118;-85
2022/09/16 18:33:19;;;;;;;6.75;1.58;;;13.10;99.90;;;;;;5062888;28;20067;-87
2022/09/16 18:37:04;;;;;;;6.70;0.85;;;13.10;99.90;;;;;;5008793;28;20455;-86
2022/09/16 18:54:45;;;;;;;11.13;1.58;;;13.20;99.90;;;;;;5001082;28;20061;-87
2022/09/16 18:57:22;;;;;;;11.00;1.48;;;13.10;99.90;;;;;;5010325;28;20052;-85
2022/09/16 19:15:22;;;;;;;9.05;1.58;;;12.90;99.90;;;;;;5065125;28;20080;-86
2022/09/16 19:26:02;;;;;;;6.80;1.48;;;13.00;99.90;;;;;;5064259;28;20040;-85
2022/09/16 19:31:54;;;;;;;11.10;1.02;;;12.90;99.90;;;;;;5059071;28;19919;-84
2022/09/16 19:34:38;;;;;;;9.45;1.60;;;12.90;99.90;;;;;;5058983;28;20499;-85
2022/09/16 19:37:23;;;;;;;12.15;2.45;;;12.70;99.90;;;;;;5063423;28;20044;-84
2022/09/16 19:44:10;;;;;;;10.15;1.30;;;12.70;99.90;;;;;;5064035;28;20086;-86
2022/09/16 20:09:22;;;;;;;9.10;1.58;;;12.60;99.90;;;;;;5061768;28;20072;-85
2022/09/16 20:11:48;;;;;;;10.02;1.67;;;12.60;99.90;;;;;;5062456;28;20392;-81
2022/09/16 20:14:19;;;;;;;13.35;2.10;;;12.60;99.90;;;;;;5059827;28;20038;-86
2022/09/16 20:16:50;;;;;;;12.95;1.80;;;12.60;99.90;;;;;;5057785;28;20174;-84
2022/09/16 20:19:25;;;;;;;12.18;1.45;;;12.50;99.90;;;;;;5055315;28;20079;-84
2022/09/16 20:21:50;;;;;;;8.05;0.93;;;12.40;99.90;;;;;;5059063;28;20059;-83
2022/09/16 20:24:19;;;;;;;12.75;1.50;;;12.50;99.90;;;;;;5060898;28;20056;-83
2022/09/16 20:26:45;;;;;;;10.50;1.52;;;12.50;99.90;;;;;;5059520;28;20041;-83
2022/09/16 20:29:11;;;;;;;10.20;1.90;;;12.40;99.90;;;;;;5059809;28;20117;-83
2022/09/16 20:31:37;;;;;;;9.13;1.52;;;12.40;99.90;;;;;;5058818;28;20041;-83
2022/09/16 20:34:03;;;;;;;8.40;1.10;;;12.40;99.90;;;;;;5043074;28;20103;-83
2022/09/16 20:36:30;;;;;;;9.82;1.50;;;12.50;99.90;;;;;;5058770;28;20189;-84
2022/09/16 20:39:03;;;;;;;15.05;2.42;;;12.50;99.90;;;;;;5060860;28;20391;-83
2022/09/16 20:42:33;;;;;;;8.27;1.30;;;12.50;99.90;;;;;;5060968;28;20033;-86
2022/09/16 20:49:23;;;;;;;13.70;1.70;;;12.50;99.90;;;;;;5878914;22;20091;-86
2022/09/16 20:52:08;;;;;;;12.20;2.25;;;12.50;99.90;;;;;;5066220;28;20089;-84
2022/09/16 20:54:34;;;;;;;8.98;1.17;;;12.40;99.90;;;;;;5064877;28;20139;-82
2022/09/16 20:56:59;;;;;;;14.15;2.10;;;12.50;99.90;;;;;;5063649;28;20040;-82
2022/09/16 20:59:26;;;;;;;13.93;2.10;;;12.50;99.90;;;;;;5079871;28;20181;-85
2022/09/16 21:01:51;;;;;;;13.90;2.65;;;12.50;99.90;;;;;;5082867;28;20040;-83
2022/09/16 21:08:50;;;;;;;15.10;2.72;;;12.50;99.90;;;;;;5061528;28;20098;-84
2022/09/16 21:12:31;;;;;;;17.98;2.97;;;12.50;99.90;;;;;;4964752;28;20053;-85
2022/09/16 21:19:16;;;;;;;13.48;2.05;;;12.50;99.90;;;;;;4920344;28;20039;-85
2022/09/16 21:21:45;;;;;;;13.45;2.03;;;12.50;99.90;;;;;;4970033;28;20058;-83
2022/09/16 21:24:11;;;;;;;15.88;3.40;;;12.50;99.90;;;;;;5041050;28;20028;-82
2022/09/16 21:26:39;;;;;;;15.70;2.40;;;12.50;99.90;;;;;;5092616;28;20477;-83
2022/09/16 21:29:11;;;;;;;12.00;2.28;;;12.50;99.90;;;;;;5071287;28;20032;-87
2022/09/16 21:36:07;;;;;;;11.45;2.80;;;12.40;99.90;;;;;;5081046;28;20074;-84
2022/09/16 21:38:53;;;;;;;12.68;2.38;;;12.40;99.90;;;;;;5062636;28;20051;-84
2022/09/16 21:41:23;;;;;;;14.32;2.28;;;12.40;99.90;;;;;;5063612;28;20068;-84
2022/09/16 21:43:54;;;;;;;16.08;2.97;;;12.30;99.90;;;;;;5075616;28;20059;-84
2022/09/16 21:46:21;;;;;;;19.85;3.42;;;12.30;99.90;;;;;;5079076;28;20556;-84
2022/09/16 21:48:48;;;;;;;18.13;4.05;;;12.40;99.90;;;;;;5077020;28;20040;-85
2022/09/16 21:51:16;;;;;;;23.08;3.60;;;12.40;99.90;;;;;;5079101;28;20056;-84
2022/09/16 21:53:43;;;;;;;16.98;2.95;;;12.40;99.90;;;;;;5080077;28;20048;-84
2022/09/16 21:56:14;;;;;;;18.05;3.20;;;12.40;99.90;;;;;;5082828;28;20044;-84
2022/09/16 21:58:40;;;;;;;15.82;3.35;;;12.30;99.90;;;;;;5080148;28;20168;-84
2022/09/16 22:01:09;;;;;;;21.45;3.97;;;12.30;99.90;;;;;;5064256;28;20143;-84
2022/09/16 22:03:36;;;;;;;18.80;2.97;;;12.30;99.90;;;;;;5078252;28;20048;-85